createdAt,value
2023-03-26T00:01:48.046Z,3.53
2023-03-26T00:04:19.991Z,6.00
2023-03-26T00:06:49.203Z,4.50
2023-03-26T00:09:18.771Z,11.93
2023-03-26T00:11:46.917Z,5.50
2023-03-26T00:14:18.048Z,6.00
2023-03-26T00:16:45.706Z,6.28
2023-03-26T00:19:14.075Z,3.95
2023-03-26T00:21:41.716Z,4.90
2023-03-26T00:24:15.366Z,3.92
2023-03-26T00:26:43.144Z,4.57
2023-03-26T00:29:12.096Z,5.32
2023-03-26T00:31:40.071Z,3.85
2023-03-26T00:34:08.636Z,8.05
2023-03-26T00:36:36.154Z,4.13
2023-03-26T00:39:06.803Z,2.70
2023-03-26T00:41:37.325Z,4.20
2023-03-26T00:44:05.288Z,6.97
2023-03-26T00:46:32.609Z,3.50
2023-03-26T00:49:02.044Z,4.55
2023-03-26T00:51:29.266Z,5.35
2023-03-26T00:53:58.173Z,4.88
2023-03-26T00:56:26.104Z,6.00
2023-03-26T00:58:53.597Z,3.03
2023-03-26T01:01:29.389Z,4.13
2023-03-26T01:04:08.333Z,4.30
2023-03-26T01:06:39.154Z,4.22
2023-03-26T01:09:17.310Z,5.53
2023-03-26T01:11:45.163Z,3.13
2023-03-26T01:14:17.284Z,3.20
2023-03-26T01:16:52.634Z,2.35
2023-03-26T01:19:29.395Z,4.10
2023-03-26T01:21:59.139Z,3.50
2023-03-26T01:24:26.962Z,0.90
2023-03-26T01:27:09.859Z,2.13
2023-03-26T01:29:44.806Z,1.73
2023-03-26T01:32:33.283Z,2.03
2023-03-26T01:35:32.763Z,2.35
2023-03-26T01:38:02.696Z,1.98
2023-03-26T01:40:43.143Z,2.20
2023-03-26T01:43:42.178Z,2.28
2023-03-26T01:46:11.531Z,3.63
2023-03-26T01:48:42.448Z,2.35
2023-03-26T01:51:11.893Z,2.42
2023-03-26T01:53:47.869Z,2.65
2023-03-26T01:56:26.099Z,2.25
2023-03-26T01:59:05.088Z,1.38
2023-03-26T02:02:09.104Z,0.85
2023-03-26T02:05:01.756Z,2.75
2023-03-26T02:21:59.962Z,1.75
2023-03-26T02:24:29.435Z,2.47
2023-03-26T02:26:58.310Z,4.00
2023-03-26T02:29:28.877Z,3.10
2023-03-26T02:31:57.835Z,3.33
2023-03-26T02:34:32.984Z,2.08
2023-03-26T02:37:01.029Z,2.58
2023-03-26T02:39:29.997Z,2.38
2023-03-26T02:42:02.559Z,2.85
2023-03-26T02:44:33.174Z,1.40
2023-03-26T02:47:00.531Z,3.15
2023-03-26T02:49:46.926Z,4.35
2023-03-26T02:52:22.037Z,4.30
2023-03-26T02:54:51.309Z,4.65
2023-03-26T02:57:24.717Z,1.17
2023-03-26T03:00:16.970Z,2.13
2023-03-26T03:02:50.691Z,1.30
2023-03-26T03:05:34.025Z,3.50
2023-03-26T03:08:18.537Z,4.00
2023-03-26T03:11:25.081Z,4.90
2023-03-26T03:13:54.929Z,3.38
2023-03-26T03:16:26.047Z,5.43
2023-03-26T03:18:58.137Z,3.47
2023-03-26T03:21:37.444Z,2.05
2023-03-26T03:24:05.381Z,1.73
2023-03-26T03:26:38.025Z,6.88
2023-03-26T03:29:33.909Z,7.55
2023-03-26T03:32:25.917Z,2.67
2023-03-26T03:34:56.900Z,3.83
2023-03-26T03:37:27.620Z,4.63
2023-03-26T03:39:56.149Z,2.97
2023-03-26T03:42:27.754Z,2.90
2023-03-26T03:44:57.649Z,2.95
2023-03-26T03:47:54.742Z,3.58
2023-03-26T03:50:35.669Z,4.97
2023-03-26T03:53:20.276Z,6.25
2023-03-26T03:55:53.704Z,3.17
2023-03-26T03:58:28.412Z,4.47
2023-03-26T04:01:04.468Z,2.30
2023-03-26T04:03:54.072Z,3.80
2023-03-26T04:06:27.540Z,3.03
2023-03-26T04:08:55.080Z,3.58
2023-03-26T04:11:23.277Z,3.30
2023-03-26T04:14:24.498Z,3.70
2023-03-26T04:17:00.795Z,4.50
2023-03-26T04:19:30.526Z,2.70
2023-03-26T04:22:02.673Z,5.07
2023-03-26T04:24:40.260Z,2.45
2023-03-26T04:27:14.904Z,2.03
2023-03-26T04:29:47.032Z,4.43
2023-03-26T04:32:30.359Z,3.40
2023-03-26T04:35:01.552Z,2.53
2023-03-26T04:37:34.542Z,1.45
2023-03-26T04:40:14.308Z,2.42
2023-03-26T04:43:01.066Z,2.22
2023-03-26T04:45:54.096Z,2.92
2023-03-26T04:48:28.000Z,5.00
2023-03-26T04:50:55.973Z,3.40
2023-03-26T04:53:24.356Z,2.90
2023-03-26T04:56:26.792Z,5.95
2023-03-26T04:59:15.032Z,7.32
2023-03-26T05:01:46.151Z,3.63
2023-03-26T05:04:15.971Z,6.72
2023-03-26T05:06:43.898Z,6.20
2023-03-26T05:09:21.407Z,8.77
2023-03-26T05:14:46.249Z,6.40
2023-03-26T05:17:21.529Z,3.65
2023-03-26T05:19:49.288Z,4.80
2023-03-26T05:22:17.755Z,5.25
2023-03-26T05:25:05.565Z,4.85
2023-03-26T05:27:33.712Z,4.80
2023-03-26T05:30:02.084Z,2.63
2023-03-26T05:32:34.092Z,6.00
2023-03-26T05:35:02.226Z,5.80
2023-03-26T05:37:31.218Z,5.60
2023-03-26T05:40:04.432Z,5.25
2023-03-26T05:42:51.503Z,7.47
2023-03-26T09:27:28.431Z,3.17
2023-03-26T09:30:15.757Z,10.73
2023-03-26T09:33:21.165Z,6.68
2023-03-26T09:35:57.364Z,2.70
2023-03-26T09:38:45.280Z,3.58
2023-03-26T09:41:43.933Z,4.68
2023-03-26T09:44:35.718Z,2.78
2023-03-26T09:47:37.636Z,1.90
2023-03-26T09:50:20.105Z,1.75
2023-03-26T09:52:55.658Z,5.10
2023-03-26T09:55:29.709Z,0.93
2023-03-26T09:58:00.514Z,3.13
2023-03-26T10:00:42.795Z,7.03
2023-03-26T10:03:44.476Z,1.70
2023-03-26T10:06:35.756Z,2.33
2023-03-26T10:09:20.992Z,2.75
2023-03-26T10:12:06.410Z,4.85
2023-03-26T10:14:51.088Z,2.88
2023-03-26T10:17:43.984Z,2.75
2023-03-26T10:20:50.791Z,2.90
2023-03-26T10:23:49.952Z,2.88
2023-03-26T10:26:39.156Z,2.15
2023-03-26T10:29:38.378Z,1.20
2023-03-26T10:32:31.885Z,6.53
2023-03-26T10:35:20.740Z,3.95
2023-03-26T10:38:26.496Z,3.13
2023-03-26T10:41:15.358Z,1.67
2023-03-26T10:44:05.573Z,5.68
2023-03-26T10:46:50.634Z,4.30
2023-03-26T10:50:02.646Z,4.15
2023-03-26T10:52:38.040Z,2.90
2023-03-26T10:55:38.014Z,3.80
2023-03-26T10:58:24.456Z,13.27
2023-03-26T11:01:05.925Z,2.40
2023-03-26T11:03:53.282Z,3.58
2023-03-26T11:06:31.031Z,4.20
2023-03-26T11:09:03.667Z,1.90
2023-03-26T11:11:51.492Z,1.83
2023-03-26T11:14:35.145Z,5.47
2023-03-26T11:17:40.678Z,3.60
2023-03-26T11:20:16.933Z,2.17
2023-03-26T11:25:32.993Z,1.83
2023-03-26T11:28:39.048Z,2.45
2023-03-26T11:31:18.706Z,2.28
2023-03-26T11:33:53.053Z,2.50
2023-03-26T11:36:36.758Z,1.27
2023-03-26T11:39:10.549Z,2.63
2023-03-26T11:41:38.028Z,4.53
2023-03-26T11:44:34.567Z,5.10
2023-03-26T11:47:08.949Z,1.80
2023-03-26T11:49:37.757Z,1.13
2023-03-26T11:52:05.405Z,1.40
2023-03-26T11:54:33.971Z,2.42
2023-03-26T11:57:08.634Z,2.22
2023-03-26T11:59:56.983Z,1.95
2023-03-26T12:02:24.932Z,2.35
2023-03-26T12:04:57.272Z,2.33
2023-03-26T12:07:34.897Z,2.83
2023-03-26T12:10:19.013Z,5.30
2023-03-26T12:12:48.496Z,1.63
2023-03-26T12:15:21.520Z,4.13
2023-03-26T12:17:53.750Z,4.57
2023-03-26T12:20:32.469Z,4.65
2023-03-26T12:23:03.126Z,4.00
2023-03-26T12:25:35.620Z,12.32
2023-03-26T12:28:13.361Z,5.10
2023-03-26T12:30:45.199Z,19.70
2023-03-26T12:33:26.342Z,10.95
2023-03-26T12:35:58.505Z,4.65
2023-03-26T12:38:30.530Z,5.15
2023-03-26T12:44:43.383Z,6.35
2023-03-26T12:44:49.866Z,4.93
2023-03-26T12:47:58.101Z,5.35
2023-03-26T12:50:14.772Z,2.15
2023-03-26T12:53:15.088Z,2.63
2023-03-26T12:56:00.730Z,1.90
2023-03-26T12:58:51.574Z,1.45
2023-03-26T13:01:36.279Z,1.08
2023-03-26T13:04:30.266Z,1.58
2023-03-26T13:07:22.211Z,3.83
2023-03-26T13:10:10.985Z,2.80
2023-03-26T13:12:58.468Z,2.30
2023-03-26T13:15:36.704Z,2.88
2023-03-26T13:18:31.937Z,4.03
2023-03-26T13:21:02.179Z,2.85
2023-03-26T13:23:48.762Z,1.45
2023-03-26T13:26:28.584Z,9.27
2023-03-26T13:29:34.195Z,2.33
2023-03-26T13:32:20.516Z,2.80
2023-03-26T13:35:08.247Z,2.38
2023-03-26T13:38:04.706Z,2.55
2023-03-26T13:40:40.743Z,2.10
2023-03-26T13:43:23.902Z,2.40
2023-03-26T13:45:56.437Z,1.83
2023-03-26T13:48:28.691Z,3.20
2023-03-26T13:51:02.462Z,2.90
2023-03-26T13:53:42.140Z,3.88
2023-03-26T13:56:15.011Z,3.75
2023-03-26T13:58:48.973Z,1.85
2023-03-26T14:01:22.566Z,1.75
2023-03-26T14:04:06.990Z,1.52
2023-03-26T14:06:47.908Z,2.00
2023-03-26T14:09:32.765Z,3.80
2023-03-26T14:12:22.083Z,3.63
2023-03-26T14:14:59.444Z,15.68
2023-03-26T14:17:46.689Z,1.40
2023-03-26T14:20:32.049Z,2.58
2023-03-26T14:23:17.742Z,2.50
2023-03-26T14:26:10.804Z,3.78
2023-03-26T14:29:13.994Z,2.60
2023-03-26T14:31:56.861Z,3.10
2023-03-26T14:34:45.681Z,3.30
2023-03-26T14:37:58.768Z,3.70
2023-03-26T14:40:44.185Z,5.10
2023-03-26T14:43:47.184Z,3.33
2023-03-26T14:46:37.908Z,2.45
2023-03-26T14:49:40.529Z,3.95
2023-03-26T14:52:13.806Z,3.25
2023-03-26T14:54:49.687Z,5.32
2023-03-26T14:57:55.700Z,5.63
2023-03-26T15:01:04.013Z,5.63
2023-03-26T15:04:20.109Z,2.42
2023-03-26T15:06:59.680Z,1.60
2023-03-26T15:09:55.773Z,1.27
2023-03-26T15:13:17.708Z,2.45
2023-03-26T15:16:38.887Z,1.83
2023-03-26T15:19:30.637Z,3.60
2023-03-26T15:22:49.221Z,3.60
2023-03-26T15:25:48.072Z,4.15
2023-03-26T15:28:53.575Z,2.13
2023-03-26T15:31:47.928Z,3.03
2023-03-26T15:34:45.087Z,2.28
2023-03-26T15:37:34.514Z,4.65
2023-03-26T15:40:40.582Z,2.05
2023-03-26T15:43:19.454Z,6.18
2023-03-26T15:46:27.002Z,2.45
2023-03-26T15:49:05.536Z,3.38
2023-03-26T15:52:20.421Z,3.45
2023-03-26T15:55:14.650Z,3.58
2023-03-26T15:58:02.557Z,3.17
2023-03-26T16:00:36.419Z,4.82
2023-03-26T16:03:13.188Z,5.63
2023-03-26T16:05:48.000Z,5.85
2023-03-26T16:08:25.744Z,4.93
2023-03-26T16:11:04.362Z,24.98
2023-03-26T16:13:41.681Z,9.13
2023-03-26T16:16:16.398Z,42.88
2023-03-26T16:18:47.006Z,85.75
2023-03-26T16:21:36.791Z,52.13
2023-03-26T16:24:07.543Z,8.10
2023-03-26T16:26:54.701Z,65.20
2023-03-26T16:29:27.271Z,5.65
2023-03-26T16:32:10.085Z,8.30
2023-03-26T16:34:49.491Z,2.90
2023-03-26T16:37:38.052Z,17.02
2023-03-26T16:40:23.771Z,5.10
2023-03-26T16:43:06.595Z,8.90
2023-03-26T16:45:55.526Z,1.83
2023-03-26T16:48:27.845Z,5.35
2023-03-26T16:51:10.619Z,29.08
2023-03-26T16:53:52.146Z,4.65
2023-03-26T16:56:48.947Z,3.75
2023-03-26T17:00:05.203Z,3.70
2023-03-26T17:02:52.555Z,2.25
2023-03-26T17:05:34.364Z,4.85
2023-03-26T17:08:36.265Z,11.77
2023-03-26T17:11:18.920Z,16.90
2023-03-26T17:14:30.544Z,21.73
2023-03-26T17:17:37.012Z,20.48
2023-03-26T17:20:33.453Z,17.55
2023-03-26T17:23:05.760Z,19.30
2023-03-26T17:26:00.028Z,23.38
2023-03-26T17:29:06.345Z,31.20
2023-03-26T17:31:45.069Z,60.33
2023-03-26T17:34:46.747Z,117.75
2023-03-26T17:37:17.077Z,122.35
2023-03-26T17:39:46.941Z,124.75
2023-03-26T17:42:25.218Z,127.20
2023-03-26T17:44:57.865Z,116.35
2023-03-26T17:47:47.140Z,99.28
2023-03-26T17:50:18.540Z,49.15
2023-03-26T17:53:33.738Z,40.60
2023-03-26T17:56:06.756Z,46.95
2023-03-26T17:58:58.821Z,65.15
2023-03-26T18:01:41.586Z,67.78
2023-03-26T18:04:19.779Z,73.05
2023-03-26T18:07:00.726Z,57.83
2023-03-26T18:09:43.398Z,107.18
2023-03-26T18:12:38.173Z,120.22
2023-03-26T18:15:36.302Z,174.98
2023-03-26T18:18:20.104Z,197.75
2023-03-26T18:20:49.854Z,156.63
2023-03-26T18:23:34.656Z,104.13
2023-03-26T18:26:20.265Z,106.45
2023-03-26T18:28:54.545Z,110.97
2023-03-26T18:31:26.566Z,73.03
2023-03-26T18:34:03.477Z,104.70
2023-03-26T18:36:31.256Z,130.45
2023-03-26T18:38:59.820Z,229.95
2023-03-26T18:41:42.029Z,156.18
2023-03-26T18:44:18.174Z,184.75
2023-03-26T18:49:16.196Z,111.03
2023-03-26T18:51:56.160Z,104.57
2023-03-26T18:54:30.160Z,119.68
2023-03-26T18:56:59.123Z,126.60
2023-03-26T18:59:35.288Z,92.72
2023-03-26T19:02:07.032Z,35.08
2023-03-26T19:04:37.073Z,29.77
2023-03-26T19:07:08.698Z,19.67
2023-03-26T19:09:37.662Z,24.10
2023-03-26T19:12:08.836Z,37.83
2023-03-26T19:15:02.524Z,32.97
2023-03-26T19:17:34.701Z,71.65
2023-03-26T19:20:03.824Z,58.70
2023-03-26T19:22:31.684Z,43.30
2023-03-26T19:25:02.218Z,48.75
2023-03-26T19:27:29.659Z,49.05
2023-03-26T19:29:58.130Z,101.38
2023-03-26T19:32:34.793Z,158.98
2023-03-26T19:35:04.617Z,143.77
2023-03-26T19:37:32.605Z,180.65
2023-03-26T19:40:14.441Z,166.30
2023-03-26T19:42:45.010Z,248.88
2023-03-26T19:45:20.646Z,273.70
2023-03-26T19:47:57.331Z,247.10
2023-03-26T19:50:34.434Z,274.40
2023-03-26T19:53:19.048Z,255.27
2023-03-26T19:55:58.121Z,225.77
2023-03-26T19:58:27.355Z,173.85
2023-03-26T20:00:56.652Z,205.02
2023-03-26T20:03:30.508Z,181.88
2023-03-26T20:05:58.264Z,196.95
2023-03-26T20:08:28.472Z,145.18
2023-03-26T20:10:57.387Z,131.07
2023-03-26T20:13:24.982Z,241.43
2023-03-26T20:16:05.727Z,159.45
2023-03-26T20:18:35.005Z,128.45
2023-03-26T20:21:08.942Z,149.20
2023-03-26T20:23:36.288Z,177.07
2023-03-26T20:26:03.842Z,193.63
2023-03-26T20:28:38.742Z,196.35
2023-03-26T20:31:26.915Z,176.13
2023-03-26T20:33:54.787Z,176.00
2023-03-26T20:36:33.965Z,199.15
2023-03-26T20:39:08.191Z,152.50
2023-03-26T20:41:43.060Z,165.35
2023-03-26T20:44:15.879Z,224.80
2023-03-26T20:46:44.886Z,246.82
2023-03-26T20:49:12.791Z,131.30
2023-03-26T20:51:49.155Z,128.90
2023-03-26T20:54:21.731Z,134.88
2023-03-26T20:56:50.288Z,122.00
2023-03-26T20:59:22.502Z,116.50
2023-03-26T21:01:51.504Z,119.07
2023-03-26T21:04:20.901Z,120.10
2023-03-26T21:06:49.484Z,138.15
2023-03-26T21:09:19.407Z,120.07
2023-03-26T21:12:00.886Z,123.05
2023-03-26T21:14:41.550Z,103.53
2023-03-26T21:17:21.164Z,89.68
2023-03-26T21:19:49.555Z,94.07
2023-03-26T21:22:34.475Z,79.05
2023-03-26T21:25:11.916Z,74.60
2023-03-26T21:27:58.416Z,87.07
2023-03-26T21:30:26.258Z,76.97
2023-03-26T21:32:54.511Z,78.68
2023-03-26T21:35:22.395Z,83.55
2023-03-26T21:37:50.993Z,71.00
2023-03-26T21:40:19.436Z,76.85
2023-03-26T21:42:50.726Z,75.57
2023-03-26T21:45:19.255Z,69.88
2023-03-26T21:47:47.298Z,66.25
2023-03-26T21:50:21.957Z,62.47
2023-03-26T21:52:51.226Z,80.05
2023-03-26T21:55:21.960Z,69.72
2023-03-26T21:58:08.533Z,83.53
2023-03-26T22:01:03.924Z,78.63
2023-03-26T22:03:50.662Z,81.35
2023-03-26T22:06:51.499Z,79.57
2023-03-26T22:09:26.375Z,79.22
2023-03-26T22:12:02.258Z,77.25
2023-03-26T22:14:29.700Z,78.82
2023-03-26T22:17:05.542Z,86.15
2023-03-26T22:19:36.212Z,84.35
2023-03-26T22:22:09.126Z,88.00
2023-03-26T22:24:38.647Z,91.55
2023-03-26T22:27:07.450Z,91.20
2023-03-26T22:29:34.711Z,68.55
2023-03-26T22:32:03.730Z,56.08
2023-03-26T22:34:32.019Z,58.88
2023-03-26T22:37:00.433Z,57.50
2023-03-26T22:39:27.694Z,48.03
2023-03-26T22:41:58.079Z,38.65
2023-03-26T22:44:25.711Z,33.08
2023-03-26T22:46:54.656Z,22.48
2023-03-26T22:49:21.929Z,21.58
2023-03-26T22:51:50.559Z,22.30
2023-03-26T22:54:18.179Z,21.50
2023-03-26T22:56:46.005Z,24.25
2023-03-26T22:59:13.538Z,21.33
2023-03-26T23:01:41.643Z,23.40
2023-03-26T23:04:09.080Z,26.90
2023-03-26T23:06:37.124Z,16.65
2023-03-26T23:09:07.274Z,12.65
2023-03-26T23:11:35.106Z,8.45
2023-03-26T23:14:02.625Z,14.02
2023-03-26T23:16:31.932Z,9.63
2023-03-26T23:18:59.360Z,21.10
2023-03-26T23:21:27.109Z,16.38
2023-03-26T23:23:57.364Z,15.60
2023-03-26T23:26:25.013Z,21.50
2023-03-26T23:28:52.579Z,19.42
2023-03-26T23:31:22.559Z,20.20
2023-03-26T23:33:50.512Z,16.60
2023-03-26T23:36:19.589Z,16.63
2023-03-26T23:38:48.559Z,16.90
2023-03-26T23:41:18.852Z,15.30
2023-03-26T23:43:55.758Z,16.35
2023-03-26T23:46:30.499Z,15.00
2023-03-26T23:49:00.352Z,18.48
2023-03-26T23:51:30.391Z,22.25
2023-03-26T23:53:57.887Z,21.08
2023-03-26T23:56:27.848Z,19.63
2023-03-26T23:58:55.366Z,18.92
